<?xml version="1.0" encoding="UTF-8"?>
<gpx xmlns="http://www.topografix.com/GPX/1/1" xmlns:xsi="http://www.w3.org/2001/XMLSchema-instance" version="1.1" xsi:schemaLocation="http://www.topografix.com/GPX/1/1 http://www.topografix.com/GPX/1/1/gpx.xsd">
  <metadata>
    <name>The One on the River - Henley 2026 - Sprint Aquabike</name>
  </metadata>
  <trk>
    <name>The One on the River - Henley 2026 - Sprint Aquabike</name>
    <trkseg>
      <trkpt lat="51.562244" lon="-0.889601">
        <ele>33.495603</ele>
        <time>2026-09-20T09:00:00.000Z</time>
      </trkpt>
      <trkpt lat="51.562342" lon="-0.889935">
        <ele>33.495617</ele>
        <time>2026-09-20T09:00:03.000Z</time>
      </trkpt>
      <trkpt lat="51.562482" lon="-0.890307">
        <ele>33.495601</ele>
        <time>2026-09-20T09:00:06.000Z</time>
      </trkpt>
      <trkpt lat="51.562339" lon="-0.890965">
        <ele>33.516547</ele>
        <time>2026-09-20T09:00:11.000Z</time>
      </trkpt>
      <trkpt lat="51.562318" lon="-0.891249">
        <ele>33.604204</ele>
        <time>2026-09-20T09:00:13.000Z</time>
      </trkpt>
      <trkpt lat="51.562322" lon="-0.891488">
        <ele>33.675901</ele>
        <time>2026-09-20T09:00:15.000Z</time>
      </trkpt>
      <trkpt lat="51.562382" lon="-0.892091">
        <ele>33.861312</ele>
        <time>2026-09-20T09:00:19.000Z</time>
      </trkpt>
      <trkpt lat="51.562359" lon="-0.892418">
        <ele>33.958318</ele>
        <time>2026-09-20T09:00:21.000Z</time>
      </trkpt>
      <trkpt lat="51.562339" lon="-0.892607">
        <ele>34.018049</ele>
        <time>2026-09-20T09:00:22.000Z</time>
      </trkpt>
      <trkpt lat="51.561994" lon="-0.894208">
        <ele>34.154578</ele>
        <time>2026-09-20T09:00:34.000Z</time>
      </trkpt>
      <trkpt lat="51.561578" lon="-0.896227">
        <ele>33.262447</ele>
        <time>2026-09-20T09:00:49.000Z</time>
      </trkpt>
      <trkpt lat="51.561506" lon="-0.89647">
        <ele>33.162862</ele>
        <time>2026-09-20T09:00:51.000Z</time>
      </trkpt>
      <trkpt lat="51.561038" lon="-0.897604">
        <ele>33.289771</ele>
        <time>2026-09-20T09:01:00.000Z</time>
      </trkpt>
      <trkpt lat="51.560947" lon="-0.897789">
        <ele>33.311119</ele>
        <time>2026-09-20T09:01:02.000Z</time>
      </trkpt>
      <trkpt lat="51.560711" lon="-0.898101">
        <ele>33.358724</ele>
        <time>2026-09-20T09:01:05.000Z</time>
      </trkpt>
      <trkpt lat="51.560445" lon="-0.898343">
        <ele>33.401915</ele>
        <time>2026-09-20T09:01:08.000Z</time>
      </trkpt>
      <trkpt lat="51.56014" lon="-0.898612">
        <ele>33.590095</ele>
        <time>2026-09-20T09:01:12.000Z</time>
      </trkpt>
      <trkpt lat="51.559624" lon="-0.898836">
        <ele>34.067667</ele>
        <time>2026-09-20T09:01:18.000Z</time>
      </trkpt>
      <trkpt lat="51.559538" lon="-0.898925">
        <ele>34.171674</ele>
        <time>2026-09-20T09:01:19.000Z</time>
      </trkpt>
      <trkpt lat="51.559384" lon="-0.899107">
        <ele>34.347928</ele>
        <time>2026-09-20T09:01:21.000Z</time>
      </trkpt>
      <trkpt lat="51.559233" lon="-0.89936">
        <ele>34.544843</ele>
        <time>2026-09-20T09:01:23.000Z</time>
      </trkpt>
      <trkpt lat="51.559123" lon="-0.899668">
        <ele>34.748599</ele>
        <time>2026-09-20T09:01:25.000Z</time>
      </trkpt>
      <trkpt lat="51.558865" lon="-0.900125">
        <ele>35.092879</ele>
        <time>2026-09-20T09:01:29.000Z</time>
      </trkpt>
      <trkpt lat="51.558678" lon="-0.90031">
        <ele>35.183811</ele>
        <time>2026-09-20T09:01:31.000Z</time>
      </trkpt>
      <trkpt lat="51.558285" lon="-0.900643">
        <ele>35.380762</ele>
        <time>2026-09-20T09:01:36.000Z</time>
      </trkpt>
      <trkpt lat="51.557597" lon="-0.901082">
        <ele>35.699603</ele>
        <time>2026-09-20T09:01:44.000Z</time>
      </trkpt>
      <trkpt lat="51.557193" lon="-0.901307">
        <ele>35.832439</ele>
        <time>2026-09-20T09:01:49.000Z</time>
      </trkpt>
      <trkpt lat="51.556278" lon="-0.901754">
        <ele>35.24305</ele>
        <time>2026-09-20T09:02:00.000Z</time>
      </trkpt>
      <trkpt lat="51.556232" lon="-0.901774">
        <ele>35.212153</ele>
        <time>2026-09-20T09:02:01.000Z</time>
      </trkpt>
      <trkpt lat="51.554085" lon="-0.902567">
        <ele>33.488599</ele>
        <time>2026-09-20T09:02:25.000Z</time>
      </trkpt>
      <trkpt lat="51.553332" lon="-0.902795">
        <ele>33.311649</ele>
        <time>2026-09-20T09:02:34.000Z</time>
      </trkpt>
      <trkpt lat="51.552976" lon="-0.90288">
        <ele>33.404064</ele>
        <time>2026-09-20T09:02:38.000Z</time>
      </trkpt>
      <trkpt lat="51.55254" lon="-0.902875">
        <ele>33.512376</ele>
        <time>2026-09-20T09:02:43.000Z</time>
      </trkpt>
      <trkpt lat="51.55118" lon="-0.902648">
        <ele>34.074041</ele>
        <time>2026-09-20T09:02:58.000Z</time>
      </trkpt>
      <trkpt lat="51.550705" lon="-0.902571">
        <ele>34.323291</ele>
        <time>2026-09-20T09:03:03.000Z</time>
      </trkpt>
      <trkpt lat="51.550053" lon="-0.902398">
        <ele>34.5423</ele>
        <time>2026-09-20T09:03:10.000Z</time>
      </trkpt>
      <trkpt lat="51.548823" lon="-0.902212">
        <ele>34.032225</ele>
        <time>2026-09-20T09:03:24.000Z</time>
      </trkpt>
      <trkpt lat="51.548709" lon="-0.902197">
        <ele>33.984347</ele>
        <time>2026-09-20T09:03:25.000Z</time>
      </trkpt>
      <trkpt lat="51.547531" lon="-0.902666">
        <ele>33.682323</ele>
        <time>2026-09-20T09:03:38.000Z</time>
      </trkpt>
      <trkpt lat="51.545887" lon="-0.903438">
        <ele>33.87305</ele>
        <time>2026-09-20T09:03:57.000Z</time>
      </trkpt>
      <trkpt lat="51.54548" lon="-0.903627">
        <ele>34.057524</ele>
        <time>2026-09-20T09:04:02.000Z</time>
      </trkpt>
      <trkpt lat="51.545446" lon="-0.903642">
        <ele>34.073082</ele>
        <time>2026-09-20T09:04:02.000Z</time>
      </trkpt>
      <trkpt lat="51.543968" lon="-0.904145">
        <ele>34.700113</ele>
        <time>2026-09-20T09:04:19.000Z</time>
      </trkpt>
      <trkpt lat="51.543286" lon="-0.904502">
        <ele>34.984197</ele>
        <time>2026-09-20T09:04:27.000Z</time>
      </trkpt>
      <trkpt lat="51.54313" lon="-0.904574">
        <ele>34.998555</ele>
        <time>2026-09-20T09:04:29.000Z</time>
      </trkpt>
      <trkpt lat="51.542555" lon="-0.904691">
        <ele>34.782143</ele>
        <time>2026-09-20T09:04:35.000Z</time>
      </trkpt>
      <trkpt lat="51.542378" lon="-0.904726">
        <ele>34.718779</ele>
        <time>2026-09-20T09:04:37.000Z</time>
      </trkpt>
      <trkpt lat="51.542037" lon="-0.904827">
        <ele>34.591166</ele>
        <time>2026-09-20T09:04:41.000Z</time>
      </trkpt>
      <trkpt lat="51.541677" lon="-0.904926">
        <ele>34.458902</ele>
        <time>2026-09-20T09:04:45.000Z</time>
      </trkpt>
      <trkpt lat="51.541459" lon="-0.905001">
        <ele>34.376642</ele>
        <time>2026-09-20T09:04:47.000Z</time>
      </trkpt>
      <trkpt lat="51.541676" lon="-0.904928">
        <ele>34.427142</ele>
        <time>2026-09-20T09:04:49.000Z</time>
      </trkpt>
      <trkpt lat="51.542039" lon="-0.904822">
        <ele>34.563568</ele>
        <time>2026-09-20T09:04:53.000Z</time>
      </trkpt>
      <trkpt lat="51.54237" lon="-0.904714">
        <ele>34.69519</ele>
        <time>2026-09-20T09:04:57.000Z</time>
      </trkpt>
      <trkpt lat="51.542553" lon="-0.904689">
        <ele>34.760547</ele>
        <time>2026-09-20T09:04:59.000Z</time>
      </trkpt>
      <trkpt lat="51.543135" lon="-0.904576">
        <ele>34.983745</ele>
        <time>2026-09-20T09:05:06.000Z</time>
      </trkpt>
      <trkpt lat="51.543276" lon="-0.904505">
        <ele>35.040944</ele>
        <time>2026-09-20T09:05:08.000Z</time>
      </trkpt>
      <trkpt lat="51.543967" lon="-0.904153">
        <ele>34.718567</ele>
        <time>2026-09-20T09:05:16.000Z</time>
      </trkpt>
      <trkpt lat="51.545454" lon="-0.903651">
        <ele>34.055482</ele>
        <time>2026-09-20T09:05:33.000Z</time>
      </trkpt>
      <trkpt lat="51.545487" lon="-0.903618">
        <ele>34.041166</ele>
        <time>2026-09-20T09:05:33.000Z</time>
      </trkpt>
      <trkpt lat="51.545885" lon="-0.903438">
        <ele>33.87146</ele>
        <time>2026-09-20T09:05:38.000Z</time>
      </trkpt>
      <trkpt lat="51.54753" lon="-0.902675">
        <ele>33.680367</ele>
        <time>2026-09-20T09:05:57.000Z</time>
      </trkpt>
      <trkpt lat="51.548711" lon="-0.902187">
        <ele>33.988861</ele>
        <time>2026-09-20T09:06:11.000Z</time>
      </trkpt>
      <trkpt lat="51.548814" lon="-0.902219">
        <ele>34.033927</ele>
        <time>2026-09-20T09:06:12.000Z</time>
      </trkpt>
      <trkpt lat="51.550062" lon="-0.902397">
        <ele>34.514253</ele>
        <time>2026-09-20T09:06:26.000Z</time>
      </trkpt>
      <trkpt lat="51.550705" lon="-0.902577">
        <ele>34.355955</ele>
        <time>2026-09-20T09:06:33.000Z</time>
      </trkpt>
      <trkpt lat="51.551171" lon="-0.902644">
        <ele>34.085085</ele>
        <time>2026-09-20T09:06:38.000Z</time>
      </trkpt>
      <trkpt lat="51.552538" lon="-0.902878">
        <ele>33.493069</ele>
        <time>2026-09-20T09:06:53.000Z</time>
      </trkpt>
      <trkpt lat="51.552974" lon="-0.902882">
        <ele>33.414956</ele>
        <time>2026-09-20T09:06:58.000Z</time>
      </trkpt>
      <trkpt lat="51.553336" lon="-0.902792">
        <ele>33.348329</ele>
        <time>2026-09-20T09:07:02.000Z</time>
      </trkpt>
      <trkpt lat="51.554082" lon="-0.902553">
        <ele>33.464045</ele>
        <time>2026-09-20T09:07:10.000Z</time>
      </trkpt>
      <trkpt lat="51.556217" lon="-0.901767">
        <ele>35.213892</ele>
        <time>2026-09-20T09:07:34.000Z</time>
      </trkpt>
      <trkpt lat="51.556272" lon="-0.901748">
        <ele>35.242666</ele>
        <time>2026-09-20T09:07:35.000Z</time>
      </trkpt>
      <trkpt lat="51.557181" lon="-0.901312">
        <ele>35.791667</ele>
        <time>2026-09-20T09:07:46.000Z</time>
      </trkpt>
      <trkpt lat="51.557611" lon="-0.901072">
        <ele>35.734207</ele>
        <time>2026-09-20T09:07:51.000Z</time>
      </trkpt>
      <trkpt lat="51.55829" lon="-0.90063">
        <ele>35.377868</ele>
        <time>2026-09-20T09:07:59.000Z</time>
      </trkpt>
      <trkpt lat="51.558681" lon="-0.900306">
        <ele>35.157759</ele>
        <time>2026-09-20T09:08:04.000Z</time>
      </trkpt>
      <trkpt lat="51.558858" lon="-0.90012">
        <ele>35.056142</ele>
        <time>2026-09-20T09:08:06.000Z</time>
      </trkpt>
      <trkpt lat="51.559124" lon="-0.899657">
        <ele>34.753093</ele>
        <time>2026-09-20T09:08:10.000Z</time>
      </trkpt>
      <trkpt lat="51.559231" lon="-0.899365">
        <ele>34.551696</ele>
        <time>2026-09-20T09:08:12.000Z</time>
      </trkpt>
      <trkpt lat="51.559371" lon="-0.899099">
        <ele>34.357064</ele>
        <time>2026-09-20T09:08:14.000Z</time>
      </trkpt>
      <trkpt lat="51.559533" lon="-0.898911">
        <ele>34.182843</ele>
        <time>2026-09-20T09:08:16.000Z</time>
      </trkpt>
      <trkpt lat="51.559625" lon="-0.898831">
        <ele>34.080046</ele>
        <time>2026-09-20T09:08:17.000Z</time>
      </trkpt>
      <trkpt lat="51.560136" lon="-0.898611">
        <ele>33.608007</ele>
        <time>2026-09-20T09:08:23.000Z</time>
      </trkpt>
      <trkpt lat="51.560447" lon="-0.898332">
        <ele>33.357706</ele>
        <time>2026-09-20T09:08:27.000Z</time>
      </trkpt>
      <trkpt lat="51.560697" lon="-0.898104">
        <ele>33.332315</ele>
        <time>2026-09-20T09:08:30.000Z</time>
      </trkpt>
      <trkpt lat="51.560956" lon="-0.897789">
        <ele>33.304302</ele>
        <time>2026-09-20T09:08:34.000Z</time>
      </trkpt>
      <trkpt lat="51.561041" lon="-0.897617">
        <ele>33.291755</ele>
        <time>2026-09-20T09:08:36.000Z</time>
      </trkpt>
      <trkpt lat="51.561512" lon="-0.896466">
        <ele>33.217098</ele>
        <time>2026-09-20T09:08:46.000Z</time>
      </trkpt>
      <trkpt lat="51.56158" lon="-0.896235">
        <ele>33.247386</ele>
        <time>2026-09-20T09:08:48.000Z</time>
      </trkpt>
      <trkpt lat="51.561992" lon="-0.894192">
        <ele>34.136323</ele>
        <time>2026-09-20T09:09:03.000Z</time>
      </trkpt>
      <trkpt lat="51.562329" lon="-0.892621">
        <ele>34.354096</ele>
        <time>2026-09-20T09:09:14.000Z</time>
      </trkpt>
      <trkpt lat="51.56236" lon="-0.89241">
        <ele>34.342609</ele>
        <time>2026-09-20T09:09:15.000Z</time>
      </trkpt>
      <trkpt lat="51.562375" lon="-0.892105">
        <ele>34.323974</ele>
        <time>2026-09-20T09:09:17.000Z</time>
      </trkpt>
      <trkpt lat="51.562329" lon="-0.891488">
        <ele>34.288334</ele>
        <time>2026-09-20T09:09:21.000Z</time>
      </trkpt>
      <trkpt lat="51.562321" lon="-0.891259">
        <ele>34.274565</ele>
        <time>2026-09-20T09:09:23.000Z</time>
      </trkpt>
      <trkpt lat="51.562338" lon="-0.890978">
        <ele>34.257713</ele>
        <time>2026-09-20T09:09:25.000Z</time>
      </trkpt>
      <trkpt lat="51.562477" lon="-0.890306">
        <ele>34.142176</ele>
        <time>2026-09-20T09:09:30.000Z</time>
      </trkpt>
      <trkpt lat="51.562722" lon="-0.88949">
        <ele>33.94732</ele>
        <time>2026-09-20T09:09:36.000Z</time>
      </trkpt>
      <trkpt lat="51.562949" lon="-0.88888">
        <ele>33.799338</ele>
        <time>2026-09-20T09:09:41.000Z</time>
      </trkpt>
      <trkpt lat="51.563146" lon="-0.887909">
        <ele>33.758049</ele>
        <time>2026-09-20T09:09:48.000Z</time>
      </trkpt>
      <trkpt lat="51.563241" lon="-0.887266">
        <ele>34.146592</ele>
        <time>2026-09-20T09:09:53.000Z</time>
      </trkpt>
      <trkpt lat="51.563696" lon="-0.884285">
        <ele>35.745501</ele>
        <time>2026-09-20T09:10:14.000Z</time>
      </trkpt>
      <trkpt lat="51.5638" lon="-0.883584">
        <ele>36.025818</ele>
        <time>2026-09-20T09:10:19.000Z</time>
      </trkpt>
      <trkpt lat="51.563863" lon="-0.882855">
        <ele>36.307828</ele>
        <time>2026-09-20T09:10:24.000Z</time>
      </trkpt>
      <trkpt lat="51.563881" lon="-0.882338">
        <ele>36.307524</ele>
        <time>2026-09-20T09:10:28.000Z</time>
      </trkpt>
      <trkpt lat="51.563868" lon="-0.881762">
        <ele>35.702728</ele>
        <time>2026-09-20T09:10:32.000Z</time>
      </trkpt>
      <trkpt lat="51.563711" lon="-0.881068">
        <ele>34.898316</ele>
        <time>2026-09-20T09:10:37.000Z</time>
      </trkpt>
      <trkpt lat="51.563151" lon="-0.879207">
        <ele>32.850024</ele>
        <time>2026-09-20T09:10:51.000Z</time>
      </trkpt>
      <trkpt lat="51.562938" lon="-0.878348">
        <ele>32.054837</ele>
        <time>2026-09-20T09:10:57.000Z</time>
      </trkpt>
      <trkpt lat="51.562883" lon="-0.878005">
        <ele>31.758651</ele>
        <time>2026-09-20T09:10:59.000Z</time>
      </trkpt>
      <trkpt lat="51.562825" lon="-0.87729">
        <ele>31.14079</ele>
        <time>2026-09-20T09:11:04.000Z</time>
      </trkpt>
      <trkpt lat="51.562795" lon="-0.877115">
        <ele>30.98207</ele>
        <time>2026-09-20T09:11:05.000Z</time>
      </trkpt>
      <trkpt lat="51.56274" lon="-0.87691">
        <ele>30.874353</ele>
        <time>2026-09-20T09:11:07.000Z</time>
      </trkpt>
      <trkpt lat="51.5625" lon="-0.876353">
        <ele>30.699232</ele>
        <time>2026-09-20T09:11:12.000Z</time>
      </trkpt>
      <trkpt lat="51.561698" lon="-0.874293">
        <ele>30.179113</ele>
        <time>2026-09-20T09:11:29.000Z</time>
      </trkpt>
      <trkpt lat="51.560915" lon="-0.872635">
        <ele>30.29095</ele>
        <time>2026-09-20T09:11:43.000Z</time>
      </trkpt>
      <trkpt lat="51.560347" lon="-0.871551">
        <ele>30.457564</ele>
        <time>2026-09-20T09:11:53.000Z</time>
      </trkpt>
      <trkpt lat="51.56018" lon="-0.871245">
        <ele>30.517238</ele>
        <time>2026-09-20T09:11:56.000Z</time>
      </trkpt>
      <trkpt lat="51.55923" lon="-0.869586">
        <ele>30.880793</ele>
        <time>2026-09-20T09:12:12.000Z</time>
      </trkpt>
      <trkpt lat="51.558971" lon="-0.868931">
        <ele>31.033369</ele>
        <time>2026-09-20T09:12:17.000Z</time>
      </trkpt>
      <trkpt lat="51.558914" lon="-0.868729">
        <ele>31.079776</ele>
        <time>2026-09-20T09:12:19.000Z</time>
      </trkpt>
      <trkpt lat="51.558732" lon="-0.86803">
        <ele>31.227011</ele>
        <time>2026-09-20T09:12:24.000Z</time>
      </trkpt>
      <trkpt lat="51.558842" lon="-0.867969">
        <ele>31.262944</ele>
        <time>2026-09-20T09:12:25.000Z</time>
      </trkpt>
      <trkpt lat="51.558949" lon="-0.867947">
        <ele>31.298514</ele>
        <time>2026-09-20T09:12:26.000Z</time>
      </trkpt>
      <trkpt lat="51.559244" lon="-0.868097">
        <ele>31.611107</ele>
        <time>2026-09-20T09:12:29.000Z</time>
      </trkpt>
      <trkpt lat="51.55967" lon="-0.868139">
        <ele>32.062799</ele>
        <time>2026-09-20T09:12:34.000Z</time>
      </trkpt>
      <trkpt lat="51.559762" lon="-0.86815">
        <ele>32.15157</ele>
        <time>2026-09-20T09:12:35.000Z</time>
      </trkpt>
      <trkpt lat="51.56041" lon="-0.868233">
        <ele>32.846661</ele>
        <time>2026-09-20T09:12:42.000Z</time>
      </trkpt>
      <trkpt lat="51.560694" lon="-0.868236">
        <ele>33.152537</ele>
        <time>2026-09-20T09:12:45.000Z</time>
      </trkpt>
      <trkpt lat="51.5619" lon="-0.868148">
        <ele>34.19972</ele>
        <time>2026-09-20T09:12:58.000Z</time>
      </trkpt>
      <trkpt lat="51.562562" lon="-0.868159">
        <ele>34.772214</ele>
        <time>2026-09-20T09:13:05.000Z</time>
      </trkpt>
      <trkpt lat="51.563871" lon="-0.868147">
        <ele>36.239391</ele>
        <time>2026-09-20T09:13:20.000Z</time>
      </trkpt>
      <trkpt lat="51.564444" lon="-0.868199">
        <ele>36.886621</ele>
        <time>2026-09-20T09:13:26.000Z</time>
      </trkpt>
      <trkpt lat="51.565207" lon="-0.86846">
        <ele>37.939908</ele>
        <time>2026-09-20T09:13:35.000Z</time>
      </trkpt>
      <trkpt lat="51.5667" lon="-0.869111">
        <ele>40.663823</ele>
        <time>2026-09-20T09:13:52.000Z</time>
      </trkpt>
      <trkpt lat="51.567591" lon="-0.869769">
        <ele>42.991309</ele>
        <time>2026-09-20T09:14:03.000Z</time>
      </trkpt>
      <trkpt lat="51.567795" lon="-0.869886">
        <ele>43.45467</ele>
        <time>2026-09-20T09:14:05.000Z</time>
      </trkpt>
      <trkpt lat="51.568071" lon="-0.870006">
        <ele>43.855897</ele>
        <time>2026-09-20T09:14:08.000Z</time>
      </trkpt>
      <trkpt lat="51.56895" lon="-0.870149">
        <ele>45.113826</ele>
        <time>2026-09-20T09:14:18.000Z</time>
      </trkpt>
      <trkpt lat="51.569154" lon="-0.870239">
        <ele>45.424377</ele>
        <time>2026-09-20T09:14:20.000Z</time>
      </trkpt>
      <trkpt lat="51.569827" lon="-0.870629">
        <ele>46.388001</ele>
        <time>2026-09-20T09:14:28.000Z</time>
      </trkpt>
      <trkpt lat="51.570061" lon="-0.870728">
        <ele>46.702395</ele>
        <time>2026-09-20T09:14:31.000Z</time>
      </trkpt>
      <trkpt lat="51.570457" lon="-0.870821">
        <ele>47.188729</ele>
        <time>2026-09-20T09:14:35.000Z</time>
      </trkpt>
      <trkpt lat="51.57081" lon="-0.870991">
        <ele>47.680833</ele>
        <time>2026-09-20T09:14:39.000Z</time>
      </trkpt>
      <trkpt lat="51.570946" lon="-0.871097">
        <ele>47.854766</ele>
        <time>2026-09-20T09:14:41.000Z</time>
      </trkpt>
      <trkpt lat="51.571518" lon="-0.87154">
        <ele>48.423086</ele>
        <time>2026-09-20T09:14:48.000Z</time>
      </trkpt>
      <trkpt lat="51.57237" lon="-0.872033">
        <ele>48.879765</ele>
        <time>2026-09-20T09:14:58.000Z</time>
      </trkpt>
      <trkpt lat="51.572585" lon="-0.872132">
        <ele>48.995158</ele>
        <time>2026-09-20T09:15:00.000Z</time>
      </trkpt>
      <trkpt lat="51.573554" lon="-0.872398">
        <ele>49.034836</ele>
        <time>2026-09-20T09:15:11.000Z</time>
      </trkpt>
      <trkpt lat="51.57434" lon="-0.873062">
        <ele>48.842592</ele>
        <time>2026-09-20T09:15:21.000Z</time>
      </trkpt>
      <trkpt lat="51.574563" lon="-0.873273">
        <ele>48.787673</ele>
        <time>2026-09-20T09:15:24.000Z</time>
      </trkpt>
      <trkpt lat="51.574993" lon="-0.873604">
        <ele>49.14009</ele>
        <time>2026-09-20T09:15:29.000Z</time>
      </trkpt>
      <trkpt lat="51.575647" lon="-0.874199">
        <ele>49.71223</ele>
        <time>2026-09-20T09:15:37.000Z</time>
      </trkpt>
      <trkpt lat="51.575884" lon="-0.874309">
        <ele>49.89686</ele>
        <time>2026-09-20T09:15:40.000Z</time>
      </trkpt>
      <trkpt lat="51.576146" lon="-0.874323">
        <ele>50.099514</ele>
        <time>2026-09-20T09:15:43.000Z</time>
      </trkpt>
      <trkpt lat="51.576572" lon="-0.874254">
        <ele>50.078765</ele>
        <time>2026-09-20T09:15:48.000Z</time>
      </trkpt>
      <trkpt lat="51.57743" lon="-0.874227">
        <ele>49.886629</ele>
        <time>2026-09-20T09:15:58.000Z</time>
      </trkpt>
      <trkpt lat="51.577605" lon="-0.874221">
        <ele>49.847409</ele>
        <time>2026-09-20T09:16:00.000Z</time>
      </trkpt>
      <trkpt lat="51.577846" lon="-0.874292">
        <ele>49.792404</ele>
        <time>2026-09-20T09:16:03.000Z</time>
      </trkpt>
      <trkpt lat="51.578224" lon="-0.87465">
        <ele>50.026634</ele>
        <time>2026-09-20T09:16:08.000Z</time>
      </trkpt>
      <trkpt lat="51.578352" lon="-0.874727">
        <ele>50.169516</ele>
        <time>2026-09-20T09:16:10.000Z</time>
      </trkpt>
      <trkpt lat="51.57849" lon="-0.874743">
        <ele>50.297967</ele>
        <time>2026-09-20T09:16:12.000Z</time>
      </trkpt>
      <trkpt lat="51.579339" lon="-0.874681">
        <ele>51.158497</ele>
        <time>2026-09-20T09:16:21.000Z</time>
      </trkpt>
      <trkpt lat="51.579889" lon="-0.874499">
        <ele>51.707576</ele>
        <time>2026-09-20T09:16:27.000Z</time>
      </trkpt>
      <trkpt lat="51.580275" lon="-0.874454">
        <ele>52.033952</ele>
        <time>2026-09-20T09:16:31.000Z</time>
      </trkpt>
      <trkpt lat="51.580611" lon="-0.874478">
        <ele>52.313047</ele>
        <time>2026-09-20T09:16:35.000Z</time>
      </trkpt>
      <trkpt lat="51.58107" lon="-0.8744">
        <ele>52.716419</ele>
        <time>2026-09-20T09:16:40.000Z</time>
      </trkpt>
      <trkpt lat="51.581354" lon="-0.874389">
        <ele>52.956992</ele>
        <time>2026-09-20T09:16:43.000Z</time>
      </trkpt>
      <trkpt lat="51.582141" lon="-0.874262">
        <ele>53.218187</ele>
        <time>2026-09-20T09:16:52.000Z</time>
      </trkpt>
      <trkpt lat="51.582325" lon="-0.874279">
        <ele>53.252691</ele>
        <time>2026-09-20T09:16:54.000Z</time>
      </trkpt>
      <trkpt lat="51.583339" lon="-0.874593">
        <ele>53.488573</ele>
        <time>2026-09-20T09:17:05.000Z</time>
      </trkpt>
      <trkpt lat="51.58382" lon="-0.87487">
        <ele>54.018062</ele>
        <time>2026-09-20T09:17:11.000Z</time>
      </trkpt>
      <trkpt lat="51.584254" lon="-0.875178">
        <ele>54.518445</ele>
        <time>2026-09-20T09:17:16.000Z</time>
      </trkpt>
      <trkpt lat="51.584571" lon="-0.875324">
        <ele>54.875655</ele>
        <time>2026-09-20T09:17:20.000Z</time>
      </trkpt>
      <trkpt lat="51.584687" lon="-0.875347">
        <ele>55.001268</ele>
        <time>2026-09-20T09:17:21.000Z</time>
      </trkpt>
      <trkpt lat="51.585323" lon="-0.875346">
        <ele>55.956467</ele>
        <time>2026-09-20T09:17:28.000Z</time>
      </trkpt>
      <trkpt lat="51.585443" lon="-0.87538">
        <ele>56.193579</ele>
        <time>2026-09-20T09:17:29.000Z</time>
      </trkpt>
      <trkpt lat="51.586023" lon="-0.875751">
        <ele>57.401111</ele>
        <time>2026-09-20T09:17:36.000Z</time>
      </trkpt>
      <trkpt lat="51.58697" lon="-0.876438">
        <ele>59.253166</ele>
        <time>2026-09-20T09:17:48.000Z</time>
      </trkpt>
      <trkpt lat="51.587329" lon="-0.876661">
        <ele>59.744772</ele>
        <time>2026-09-20T09:17:52.000Z</time>
      </trkpt>
      <trkpt lat="51.587586" lon="-0.876877">
        <ele>60.136253</ele>
        <time>2026-09-20T09:17:55.000Z</time>
      </trkpt>
      <trkpt lat="51.587793" lon="-0.877132">
        <ele>60.483689</ele>
        <time>2026-09-20T09:17:58.000Z</time>
      </trkpt>
      <trkpt lat="51.588027" lon="-0.877339">
        <ele>60.83531</ele>
        <time>2026-09-20T09:18:01.000Z</time>
      </trkpt>
      <trkpt lat="51.588481" lon="-0.877661">
        <ele>61.642433</ele>
        <time>2026-09-20T09:18:07.000Z</time>
      </trkpt>
      <trkpt lat="51.589823" lon="-0.878067">
        <ele>64.278034</ele>
        <time>2026-09-20T09:18:22.000Z</time>
      </trkpt>
      <trkpt lat="51.590062" lon="-0.878207">
        <ele>64.789347</ele>
        <time>2026-09-20T09:18:25.000Z</time>
      </trkpt>
      <trkpt lat="51.590513" lon="-0.878576">
        <ele>65.872327</ele>
        <time>2026-09-20T09:18:31.000Z</time>
      </trkpt>
      <trkpt lat="51.591035" lon="-0.878762">
        <ele>67.02612</ele>
        <time>2026-09-20T09:18:37.000Z</time>
      </trkpt>
      <trkpt lat="51.592084" lon="-0.879002">
        <ele>69.169497</ele>
        <time>2026-09-20T09:18:49.000Z</time>
      </trkpt>
      <trkpt lat="51.592234" lon="-0.879023">
        <ele>69.428005</ele>
        <time>2026-09-20T09:18:51.000Z</time>
      </trkpt>
      <trkpt lat="51.593264" lon="-0.879347">
        <ele>71.262156</ele>
        <time>2026-09-20T09:19:03.000Z</time>
      </trkpt>
      <trkpt lat="51.593722" lon="-0.879524">
        <ele>72.151842</ele>
        <time>2026-09-20T09:19:08.000Z</time>
      </trkpt>
      <trkpt lat="51.594957" lon="-0.880189">
        <ele>74.799894</ele>
        <time>2026-09-20T09:19:22.000Z</time>
      </trkpt>
      <trkpt lat="51.596499" lon="-0.880911">
        <ele>74.866999</ele>
        <time>2026-09-20T09:19:40.000Z</time>
      </trkpt>
      <trkpt lat="51.597001" lon="-0.881034">
        <ele>74.592154</ele>
        <time>2026-09-20T09:19:46.000Z</time>
      </trkpt>
      <trkpt lat="51.597402" lon="-0.88104">
        <ele>73.101158</ele>
        <time>2026-09-20T09:19:50.000Z</time>
      </trkpt>
      <trkpt lat="51.598023" lon="-0.88095">
        <ele>70.649006</ele>
        <time>2026-09-20T09:19:57.000Z</time>
      </trkpt>
      <trkpt lat="51.598515" lon="-0.880857">
        <ele>68.776204</ele>
        <time>2026-09-20T09:20:03.000Z</time>
      </trkpt>
      <trkpt lat="51.598709" lon="-0.880895">
        <ele>67.970947</ele>
        <time>2026-09-20T09:20:05.000Z</time>
      </trkpt>
      <trkpt lat="51.598923" lon="-0.881031">
        <ele>67.567508</ele>
        <time>2026-09-20T09:20:08.000Z</time>
      </trkpt>
      <trkpt lat="51.599147" lon="-0.88121">
        <ele>67.402314</ele>
        <time>2026-09-20T09:20:11.000Z</time>
      </trkpt>
      <trkpt lat="51.599292" lon="-0.881326">
        <ele>67.284099</ele>
        <time>2026-09-20T09:20:13.000Z</time>
      </trkpt>
      <trkpt lat="51.599674" lon="-0.881537">
        <ele>66.999108</ele>
        <time>2026-09-20T09:20:17.000Z</time>
      </trkpt>
      <trkpt lat="51.599861" lon="-0.881604">
        <ele>66.864838</ele>
        <time>2026-09-20T09:20:19.000Z</time>
      </trkpt>
      <trkpt lat="51.600596" lon="-0.881695">
        <ele>66.476806</ele>
        <time>2026-09-20T09:20:27.000Z</time>
      </trkpt>
      <trkpt lat="51.600985" lon="-0.881708">
        <ele>66.708719</ele>
        <time>2026-09-20T09:20:31.000Z</time>
      </trkpt>
      <trkpt lat="51.601674" lon="-0.881862">
        <ele>67.111372</ele>
        <time>2026-09-20T09:20:39.000Z</time>
      </trkpt>
      <trkpt lat="51.601918" lon="-0.88185">
        <ele>67.254073</ele>
        <time>2026-09-20T09:20:42.000Z</time>
      </trkpt>
      <trkpt lat="51.602055" lon="-0.881759">
        <ele>67.344543</ele>
        <time>2026-09-20T09:20:44.000Z</time>
      </trkpt>
      <trkpt lat="51.60212" lon="-0.881656">
        <ele>67.392199</ele>
        <time>2026-09-20T09:20:45.000Z</time>
      </trkpt>
      <trkpt lat="51.602359" lon="-0.880861">
        <ele>67.800746</ele>
        <time>2026-09-20T09:20:51.000Z</time>
      </trkpt>
      <trkpt lat="51.602415" lon="-0.880737">
        <ele>67.883662</ele>
        <time>2026-09-20T09:20:52.000Z</time>
      </trkpt>
      <trkpt lat="51.602454" lon="-0.880666">
        <ele>67.927114</ele>
        <time>2026-09-20T09:20:53.000Z</time>
      </trkpt>
      <trkpt lat="51.602467" lon="-0.880669">
        <ele>67.93117</ele>
        <time>2026-09-20T09:20:53.000Z</time>
      </trkpt>
      <trkpt lat="51.602748" lon="-0.880725">
        <ele>68.165242</ele>
        <time>2026-09-20T09:20:56.000Z</time>
      </trkpt>
      <trkpt lat="51.603724" lon="-0.881246">
        <ele>69.031838</ele>
        <time>2026-09-20T09:21:07.000Z</time>
      </trkpt>
      <trkpt lat="51.604385" lon="-0.88151">
        <ele>69.806561</ele>
        <time>2026-09-20T09:21:15.000Z</time>
      </trkpt>
      <trkpt lat="51.604562" lon="-0.881544">
        <ele>70.020769</ele>
        <time>2026-09-20T09:21:17.000Z</time>
      </trkpt>
      <trkpt lat="51.605187" lon="-0.88156">
        <ele>70.726173</ele>
        <time>2026-09-20T09:21:24.000Z</time>
      </trkpt>
      <trkpt lat="51.605363" lon="-0.881573">
        <ele>70.937388</ele>
        <time>2026-09-20T09:21:26.000Z</time>
      </trkpt>
      <trkpt lat="51.606602" lon="-0.881613">
        <ele>71.960142</ele>
        <time>2026-09-20T09:21:40.000Z</time>
      </trkpt>
      <trkpt lat="51.607498" lon="-0.881543">
        <ele>72.874292</ele>
        <time>2026-09-20T09:21:50.000Z</time>
      </trkpt>
      <trkpt lat="51.608291" lon="-0.881365">
        <ele>74.080789</ele>
        <time>2026-09-20T09:21:59.000Z</time>
      </trkpt>
      <trkpt lat="51.6097" lon="-0.881233">
        <ele>77.402974</ele>
        <time>2026-09-20T09:22:15.000Z</time>
      </trkpt>
      <trkpt lat="51.610412" lon="-0.881077">
        <ele>79.737409</ele>
        <time>2026-09-20T09:22:23.000Z</time>
      </trkpt>
      <trkpt lat="51.610462" lon="-0.881082">
        <ele>79.876728</ele>
        <time>2026-09-20T09:22:24.000Z</time>
      </trkpt>
      <trkpt lat="51.610953" lon="-0.880846">
        <ele>81.344351</ele>
        <time>2026-09-20T09:22:30.000Z</time>
      </trkpt>
      <trkpt lat="51.611171" lon="-0.88081">
        <ele>81.775423</ele>
        <time>2026-09-20T09:22:32.000Z</time>
      </trkpt>
      <trkpt lat="51.611328" lon="-0.880818">
        <ele>82.114784</ele>
        <time>2026-09-20T09:22:34.000Z</time>
      </trkpt>
      <trkpt lat="51.611817" lon="-0.880967">
        <ele>83.110102</ele>
        <time>2026-09-20T09:22:40.000Z</time>
      </trkpt>
      <trkpt lat="51.612121" lon="-0.880988">
        <ele>83.736421</ele>
        <time>2026-09-20T09:22:43.000Z</time>
      </trkpt>
      <trkpt lat="51.612426" lon="-0.88098">
        <ele>84.350132</ele>
        <time>2026-09-20T09:22:46.000Z</time>
      </trkpt>
      <trkpt lat="51.612692" lon="-0.880882">
        <ele>84.627057</ele>
        <time>2026-09-20T09:22:49.000Z</time>
      </trkpt>
      <trkpt lat="51.612825" lon="-0.881041">
        <ele>84.615472</ele>
        <time>2026-09-20T09:22:51.000Z</time>
      </trkpt>
      <trkpt lat="51.612696" lon="-0.881754">
        <ele>84.582744</ele>
        <time>2026-09-20T09:22:56.000Z</time>
      </trkpt>
      <trkpt lat="51.612505" lon="-0.882354">
        <ele>84.554569</ele>
        <time>2026-09-20T09:23:01.000Z</time>
      </trkpt>
      <trkpt lat="51.612323" lon="-0.882901">
        <ele>84.52725</ele>
        <time>2026-09-20T09:23:05.000Z</time>
      </trkpt>
      <trkpt lat="51.612285" lon="-0.883103">
        <ele>84.518172</ele>
        <time>2026-09-20T09:23:06.000Z</time>
      </trkpt>
      <trkpt lat="51.612286" lon="-0.883232">
        <ele>84.512658</ele>
        <time>2026-09-20T09:23:07.000Z</time>
      </trkpt>
      <trkpt lat="51.612297" lon="-0.883362">
        <ele>84.311572</ele>
        <time>2026-09-20T09:23:08.000Z</time>
      </trkpt>
      <trkpt lat="51.612321" lon="-0.883928">
        <ele>83.249854</ele>
        <time>2026-09-20T09:23:12.000Z</time>
      </trkpt>
      <trkpt lat="51.612302" lon="-0.884107">
        <ele>82.924997</ele>
        <time>2026-09-20T09:23:13.000Z</time>
      </trkpt>
      <trkpt lat="51.61191" lon="-0.88592">
        <ele>79.417823</ele>
        <time>2026-09-20T09:23:26.000Z</time>
      </trkpt>
      <trkpt lat="51.61174" lon="-0.886439">
        <ele>79.193099</ele>
        <time>2026-09-20T09:23:30.000Z</time>
      </trkpt>
      <trkpt lat="51.611639" lon="-0.886679">
        <ele>79.178818</ele>
        <time>2026-09-20T09:23:32.000Z</time>
      </trkpt>
      <trkpt lat="51.611571" lon="-0.886925">
        <ele>79.165097</ele>
        <time>2026-09-20T09:23:34.000Z</time>
      </trkpt>
      <trkpt lat="51.611562" lon="-0.887232">
        <ele>79.149743</ele>
        <time>2026-09-20T09:23:36.000Z</time>
      </trkpt>
      <trkpt lat="51.611643" lon="-0.887621">
        <ele>79.130009</ele>
        <time>2026-09-20T09:23:39.000Z</time>
      </trkpt>
      <trkpt lat="51.611796" lon="-0.888045">
        <ele>79.105727</ele>
        <time>2026-09-20T09:23:42.000Z</time>
      </trkpt>
      <trkpt lat="51.611751" lon="-0.888223">
        <ele>79.096319</ele>
        <time>2026-09-20T09:23:43.000Z</time>
      </trkpt>
      <trkpt lat="51.611637" lon="-0.888947">
        <ele>79.467333</ele>
        <time>2026-09-20T09:23:48.000Z</time>
      </trkpt>
      <trkpt lat="51.611096" lon="-0.890659">
        <ele>82.092343</ele>
        <time>2026-09-20T09:24:01.000Z</time>
      </trkpt>
      <trkpt lat="51.609874" lon="-0.892624">
        <ele>86.581303</ele>
        <time>2026-09-20T09:24:20.000Z</time>
      </trkpt>
      <trkpt lat="51.609561" lon="-0.89318">
        <ele>87.85108</ele>
        <time>2026-09-20T09:24:25.000Z</time>
      </trkpt>
      <trkpt lat="51.608965" lon="-0.894123">
        <ele>90.577294</ele>
        <time>2026-09-20T09:24:34.000Z</time>
      </trkpt>
      <trkpt lat="51.608597" lon="-0.894834">
        <ele>92.466829</ele>
        <time>2026-09-20T09:24:40.000Z</time>
      </trkpt>
      <trkpt lat="51.608361" lon="-0.895485">
        <ele>93.97134</ele>
        <time>2026-09-20T09:24:45.000Z</time>
      </trkpt>
      <trkpt lat="51.607946" lon="-0.896062">
        <ele>96.084171</ele>
        <time>2026-09-20T09:24:51.000Z</time>
      </trkpt>
      <trkpt lat="51.606851" lon="-0.897055">
        <ele>100.826202</ele>
        <time>2026-09-20T09:25:05.000Z</time>
      </trkpt>
      <trkpt lat="51.606956" lon="-0.899848">
        <ele>108.284157</ele>
        <time>2026-09-20T09:25:24.000Z</time>
      </trkpt>
      <trkpt lat="51.607078" lon="-0.901195">
        <ele>111.374806</ele>
        <time>2026-09-20T09:25:33.000Z</time>
      </trkpt>
      <trkpt lat="51.607738" lon="-0.909235">
        <ele>130.444775</ele>
        <time>2026-09-20T09:26:29.000Z</time>
      </trkpt>
      <trkpt lat="51.607793" lon="-0.910331">
        <ele>134.074312</ele>
        <time>2026-09-20T09:26:37.000Z</time>
      </trkpt>
      <trkpt lat="51.60786" lon="-0.910975">
        <ele>136.260166</ele>
        <time>2026-09-20T09:26:42.000Z</time>
      </trkpt>
      <trkpt lat="51.607943" lon="-0.911373">
        <ele>137.657387</ele>
        <time>2026-09-20T09:26:45.000Z</time>
      </trkpt>
      <trkpt lat="51.608059" lon="-0.911731">
        <ele>140.185128</ele>
        <time>2026-09-20T09:26:48.000Z</time>
      </trkpt>
      <trkpt lat="51.608312" lon="-0.912293">
        <ele>144.370806</ele>
        <time>2026-09-20T09:26:53.000Z</time>
      </trkpt>
      <trkpt lat="51.608645" lon="-0.913095">
        <ele>150.091617</ele>
        <time>2026-09-20T09:27:00.000Z</time>
      </trkpt>
      <trkpt lat="51.608935" lon="-0.914025">
        <ele>156.494268</ele>
        <time>2026-09-20T09:27:07.000Z</time>
      </trkpt>
      <trkpt lat="51.609189" lon="-0.914594">
        <ele>161.117011</ele>
        <time>2026-09-20T09:27:12.000Z</time>
      </trkpt>
      <trkpt lat="51.609427" lon="-0.91506">
        <ele>165.13421</ele>
        <time>2026-09-20T09:27:16.000Z</time>
      </trkpt>
      <trkpt lat="51.609656" lon="-0.915392">
        <ele>168.332444</ele>
        <time>2026-09-20T09:27:19.000Z</time>
      </trkpt>
      <trkpt lat="51.609806" lon="-0.915529">
        <ele>170.140853</ele>
        <time>2026-09-20T09:27:21.000Z</time>
      </trkpt>
      <trkpt lat="51.610446" lon="-0.91589">
        <ele>176.642105</ele>
        <time>2026-09-20T09:27:29.000Z</time>
      </trkpt>
      <trkpt lat="51.610766" lon="-0.916081">
        <ele>179.503645</ele>
        <time>2026-09-20T09:27:33.000Z</time>
      </trkpt>
      <trkpt lat="51.610859" lon="-0.916189">
        <ele>180.402794</ele>
        <time>2026-09-20T09:27:34.000Z</time>
      </trkpt>
      <trkpt lat="51.610911" lon="-0.916695">
        <ele>183.01639</ele>
        <time>2026-09-20T09:27:38.000Z</time>
      </trkpt>
      <trkpt lat="51.610906" lon="-0.917198">
        <ele>185.583576</ele>
        <time>2026-09-20T09:27:41.000Z</time>
      </trkpt>
      <trkpt lat="51.610783" lon="-0.917819">
        <ele>188.835167</ele>
        <time>2026-09-20T09:27:46.000Z</time>
      </trkpt>
      <trkpt lat="51.610658" lon="-0.918278">
        <ele>189.44781</ele>
        <time>2026-09-20T09:27:49.000Z</time>
      </trkpt>
      <trkpt lat="51.611028" lon="-0.921832">
        <ele>191.753622</ele>
        <time>2026-09-20T09:28:14.000Z</time>
      </trkpt>
      <trkpt lat="51.611344" lon="-0.923016">
        <ele>191.251733</ele>
        <time>2026-09-20T09:28:23.000Z</time>
      </trkpt>
      <trkpt lat="51.611841" lon="-0.924607">
        <ele>189.042559</ele>
        <time>2026-09-20T09:28:35.000Z</time>
      </trkpt>
      <trkpt lat="51.611974" lon="-0.925046">
        <ele>188.342744</ele>
        <time>2026-09-20T09:28:38.000Z</time>
      </trkpt>
      <trkpt lat="51.612352" lon="-0.926055">
        <ele>186.4181</ele>
        <time>2026-09-20T09:28:46.000Z</time>
      </trkpt>
      <trkpt lat="51.612371" lon="-0.926222">
        <ele>185.980964</ele>
        <time>2026-09-20T09:28:47.000Z</time>
      </trkpt>
      <trkpt lat="51.612265" lon="-0.926607">
        <ele>184.967702</ele>
        <time>2026-09-20T09:28:50.000Z</time>
      </trkpt>
      <trkpt lat="51.612142" lon="-0.926904">
        <ele>184.080893</ele>
        <time>2026-09-20T09:28:52.000Z</time>
      </trkpt>
      <trkpt lat="51.612017" lon="-0.927119">
        <ele>183.351223</ele>
        <time>2026-09-20T09:28:54.000Z</time>
      </trkpt>
      <trkpt lat="51.611653" lon="-0.927227">
        <ele>181.882002</ele>
        <time>2026-09-20T09:28:58.000Z</time>
      </trkpt>
      <trkpt lat="51.609578" lon="-0.929182">
        <ele>168.32692</ele>
        <time>2026-09-20T09:29:25.000Z</time>
      </trkpt>
      <trkpt lat="51.608767" lon="-0.929958">
        <ele>160.331244</ele>
        <time>2026-09-20T09:29:36.000Z</time>
      </trkpt>
      <trkpt lat="51.607565" lon="-0.93078">
        <ele>149.495755</ele>
        <time>2026-09-20T09:29:51.000Z</time>
      </trkpt>
      <trkpt lat="51.606728" lon="-0.930981">
        <ele>142.667584</ele>
        <time>2026-09-20T09:30:00.000Z</time>
      </trkpt>
      <trkpt lat="51.605744" lon="-0.93069">
        <ele>136.719066</ele>
        <time>2026-09-20T09:30:11.000Z</time>
      </trkpt>
      <trkpt lat="51.604067" lon="-0.93007">
        <ele>129.728994</ele>
        <time>2026-09-20T09:30:30.000Z</time>
      </trkpt>
      <trkpt lat="51.603952" lon="-0.930064">
        <ele>129.381054</ele>
        <time>2026-09-20T09:30:31.000Z</time>
      </trkpt>
      <trkpt lat="51.603261" lon="-0.930424">
        <ele>127.397047</ele>
        <time>2026-09-20T09:30:39.000Z</time>
      </trkpt>
      <trkpt lat="51.602919" lon="-0.930692">
        <ele>126.298436</ele>
        <time>2026-09-20T09:30:43.000Z</time>
      </trkpt>
      <trkpt lat="51.602572" lon="-0.931093">
        <ele>124.952117</ele>
        <time>2026-09-20T09:30:48.000Z</time>
      </trkpt>
      <trkpt lat="51.602125" lon="-0.931862">
        <ele>122.819921</ele>
        <time>2026-09-20T09:30:55.000Z</time>
      </trkpt>
      <trkpt lat="51.601739" lon="-0.932771">
        <ele>120.574459</ele>
        <time>2026-09-20T09:31:03.000Z</time>
      </trkpt>
      <trkpt lat="51.601712" lon="-0.933955">
        <ele>117.675333</ele>
        <time>2026-09-20T09:31:11.000Z</time>
      </trkpt>
      <trkpt lat="51.602095" lon="-0.935026">
        <ele>114.516952</ele>
        <time>2026-09-20T09:31:20.000Z</time>
      </trkpt>
      <trkpt lat="51.60221" lon="-0.935545">
        <ele>113.10501</ele>
        <time>2026-09-20T09:31:24.000Z</time>
      </trkpt>
      <trkpt lat="51.602292" lon="-0.936007">
        <ele>111.721088</ele>
        <time>2026-09-20T09:31:27.000Z</time>
      </trkpt>
      <trkpt lat="51.602308" lon="-0.936234">
        <ele>110.948175</ele>
        <time>2026-09-20T09:31:29.000Z</time>
      </trkpt>
      <trkpt lat="51.602233" lon="-0.936619">
        <ele>109.676407</ele>
        <time>2026-09-20T09:31:32.000Z</time>
      </trkpt>
      <trkpt lat="51.602116" lon="-0.937015">
        <ele>108.302564</ele>
        <time>2026-09-20T09:31:35.000Z</time>
      </trkpt>
      <trkpt lat="51.601824" lon="-0.937785">
        <ele>105.473301</ele>
        <time>2026-09-20T09:31:41.000Z</time>
      </trkpt>
      <trkpt lat="51.601329" lon="-0.938222">
        <ele>102.935237</ele>
        <time>2026-09-20T09:31:47.000Z</time>
      </trkpt>
      <trkpt lat="51.600784" lon="-0.938598">
        <ele>100.954376</ele>
        <time>2026-09-20T09:31:54.000Z</time>
      </trkpt>
      <trkpt lat="51.600498" lon="-0.938674">
        <ele>99.958935</ele>
        <time>2026-09-20T09:31:57.000Z</time>
      </trkpt>
      <trkpt lat="51.60013" lon="-0.938676">
        <ele>98.731717</ele>
        <time>2026-09-20T09:32:01.000Z</time>
      </trkpt>
      <trkpt lat="51.599414" lon="-0.938487">
        <ele>97.081343</ele>
        <time>2026-09-20T09:32:09.000Z</time>
      </trkpt>
      <trkpt lat="51.598836" lon="-0.938275">
        <ele>96.323241</ele>
        <time>2026-09-20T09:32:16.000Z</time>
      </trkpt>
      <trkpt lat="51.598522" lon="-0.938209">
        <ele>95.912889</ele>
        <time>2026-09-20T09:32:20.000Z</time>
      </trkpt>
      <trkpt lat="51.597807" lon="-0.938413">
        <ele>95.002316</ele>
        <time>2026-09-20T09:32:28.000Z</time>
      </trkpt>
      <trkpt lat="51.597638" lon="-0.938385">
        <ele>94.817624</ele>
        <time>2026-09-20T09:32:30.000Z</time>
      </trkpt>
      <trkpt lat="51.597417" lon="-0.938119">
        <ele>94.522919</ele>
        <time>2026-09-20T09:32:33.000Z</time>
      </trkpt>
      <trkpt lat="51.597098" lon="-0.937855">
        <ele>94.134533</ele>
        <time>2026-09-20T09:32:37.000Z</time>
      </trkpt>
      <trkpt lat="51.596814" lon="-0.937673">
        <ele>93.790458</ele>
        <time>2026-09-20T09:32:40.000Z</time>
      </trkpt>
      <trkpt lat="51.596479" lon="-0.937596">
        <ele>93.424409</ele>
        <time>2026-09-20T09:32:44.000Z</time>
      </trkpt>
      <trkpt lat="51.595869" lon="-0.937633">
        <ele>92.864606</ele>
        <time>2026-09-20T09:32:51.000Z</time>
      </trkpt>
      <trkpt lat="51.594714" lon="-0.937741">
        <ele>91.85862</ele>
        <time>2026-09-20T09:33:04.000Z</time>
      </trkpt>
      <trkpt lat="51.59448" lon="-0.937767">
        <ele>91.634122</ele>
        <time>2026-09-20T09:33:07.000Z</time>
      </trkpt>
      <trkpt lat="51.593751" lon="-0.937833">
        <ele>90.779061</ele>
        <time>2026-09-20T09:33:15.000Z</time>
      </trkpt>
      <trkpt lat="51.592908" lon="-0.937923">
        <ele>89.78562</ele>
        <time>2026-09-20T09:33:24.000Z</time>
      </trkpt>
      <trkpt lat="51.592406" lon="-0.937834">
        <ele>89.130658</ele>
        <time>2026-09-20T09:33:30.000Z</time>
      </trkpt>
      <trkpt lat="51.592361" lon="-0.93783">
        <ele>89.092246</ele>
        <time>2026-09-20T09:33:31.000Z</time>
      </trkpt>
      <trkpt lat="51.5921" lon="-0.93781">
        <ele>88.725167</ele>
        <time>2026-09-20T09:33:34.000Z</time>
      </trkpt>
      <trkpt lat="51.59194" lon="-0.937802">
        <ele>88.529317</ele>
        <time>2026-09-20T09:33:36.000Z</time>
      </trkpt>
      <trkpt lat="51.59171" lon="-0.937829">
        <ele>88.217655</ele>
        <time>2026-09-20T09:33:39.000Z</time>
      </trkpt>
      <trkpt lat="51.591416" lon="-0.937898">
        <ele>87.828567</ele>
        <time>2026-09-20T09:33:42.000Z</time>
      </trkpt>
      <trkpt lat="51.59117" lon="-0.938088">
        <ele>87.470492</ele>
        <time>2026-09-20T09:33:45.000Z</time>
      </trkpt>
      <trkpt lat="51.591053" lon="-0.938219">
        <ele>87.270034</ele>
        <time>2026-09-20T09:33:47.000Z</time>
      </trkpt>
      <trkpt lat="51.590891" lon="-0.938435">
        <ele>87.001208</ele>
        <time>2026-09-20T09:33:49.000Z</time>
      </trkpt>
      <trkpt lat="51.590762" lon="-0.938615">
        <ele>86.779282</ele>
        <time>2026-09-20T09:33:51.000Z</time>
      </trkpt>
      <trkpt lat="51.590551" lon="-0.938816">
        <ele>86.467129</ele>
        <time>2026-09-20T09:33:54.000Z</time>
      </trkpt>
      <trkpt lat="51.589885" lon="-0.939348">
        <ele>85.511586</ele>
        <time>2026-09-20T09:34:02.000Z</time>
      </trkpt>
      <trkpt lat="51.58968" lon="-0.939547">
        <ele>85.200349</ele>
        <time>2026-09-20T09:34:05.000Z</time>
      </trkpt>
      <trkpt lat="51.589512" lon="-0.939729">
        <ele>84.939512</ele>
        <time>2026-09-20T09:34:07.000Z</time>
      </trkpt>
      <trkpt lat="51.58921" lon="-0.940083">
        <ele>84.353631</ele>
        <time>2026-09-20T09:34:11.000Z</time>
      </trkpt>
      <trkpt lat="51.589132" lon="-0.940163">
        <ele>84.206362</ele>
        <time>2026-09-20T09:34:12.000Z</time>
      </trkpt>
      <trkpt lat="51.588629" lon="-0.940626">
        <ele>83.311862</ele>
        <time>2026-09-20T09:34:18.000Z</time>
      </trkpt>
      <trkpt lat="51.588362" lon="-0.940834">
        <ele>82.837283</ele>
        <time>2026-09-20T09:34:21.000Z</time>
      </trkpt>
      <trkpt lat="51.588082" lon="-0.940994">
        <ele>82.371663</ele>
        <time>2026-09-20T09:34:24.000Z</time>
      </trkpt>
      <trkpt lat="51.587736" lon="-0.941093">
        <ele>81.895119</ele>
        <time>2026-09-20T09:34:28.000Z</time>
      </trkpt>
      <trkpt lat="51.586005" lon="-0.941414">
        <ele>79.922622</ele>
        <time>2026-09-20T09:34:47.000Z</time>
      </trkpt>
      <trkpt lat="51.585502" lon="-0.94149">
        <ele>79.254663</ele>
        <time>2026-09-20T09:34:53.000Z</time>
      </trkpt>
      <trkpt lat="51.585369" lon="-0.941523">
        <ele>79.074976</ele>
        <time>2026-09-20T09:34:54.000Z</time>
      </trkpt>
      <trkpt lat="51.584685" lon="-0.941462">
        <ele>78.128559</ele>
        <time>2026-09-20T09:35:02.000Z</time>
      </trkpt>
      <trkpt lat="51.584262" lon="-0.941328">
        <ele>77.597914</ele>
        <time>2026-09-20T09:35:07.000Z</time>
      </trkpt>
      <trkpt lat="51.584034" lon="-0.941163">
        <ele>77.373577</ele>
        <time>2026-09-20T09:35:10.000Z</time>
      </trkpt>
      <trkpt lat="51.583571" lon="-0.940693">
        <ele>76.910188</ele>
        <time>2026-09-20T09:35:16.000Z</time>
      </trkpt>
      <trkpt lat="51.583414" lon="-0.94059">
        <ele>76.768026</ele>
        <time>2026-09-20T09:35:18.000Z</time>
      </trkpt>
      <trkpt lat="51.582445" lon="-0.940126">
        <ele>75.849304</ele>
        <time>2026-09-20T09:35:29.000Z</time>
      </trkpt>
      <trkpt lat="51.582157" lon="-0.939995">
        <ele>75.543379</ele>
        <time>2026-09-20T09:35:32.000Z</time>
      </trkpt>
      <trkpt lat="51.581074" lon="-0.939847">
        <ele>74.385351</ele>
        <time>2026-09-20T09:35:44.000Z</time>
      </trkpt>
      <trkpt lat="51.580434" lon="-0.939584">
        <ele>73.651703</ele>
        <time>2026-09-20T09:35:51.000Z</time>
      </trkpt>
      <trkpt lat="51.580081" lon="-0.939523">
        <ele>73.261982</ele>
        <time>2026-09-20T09:35:55.000Z</time>
      </trkpt>
      <trkpt lat="51.579124" lon="-0.93951">
        <ele>72.193917</ele>
        <time>2026-09-20T09:36:06.000Z</time>
      </trkpt>
      <trkpt lat="51.57891" lon="-0.939515">
        <ele>72.055649</ele>
        <time>2026-09-20T09:36:08.000Z</time>
      </trkpt>
      <trkpt lat="51.577825" lon="-0.939743">
        <ele>71.317841</ele>
        <time>2026-09-20T09:36:20.000Z</time>
      </trkpt>
      <trkpt lat="51.576859" lon="-0.94009">
        <ele>70.62787</ele>
        <time>2026-09-20T09:36:31.000Z</time>
      </trkpt>
      <trkpt lat="51.576595" lon="-0.94014">
        <ele>70.427027</ele>
        <time>2026-09-20T09:36:34.000Z</time>
      </trkpt>
      <trkpt lat="51.576106" lon="-0.940146">
        <ele>70.066127</ele>
        <time>2026-09-20T09:36:39.000Z</time>
      </trkpt>
      <trkpt lat="51.575134" lon="-0.939734">
        <ele>69.217393</ele>
        <time>2026-09-20T09:36:50.000Z</time>
      </trkpt>
      <trkpt lat="51.574057" lon="-0.939445">
        <ele>68.17942</ele>
        <time>2026-09-20T09:37:02.000Z</time>
      </trkpt>
      <trkpt lat="51.573671" lon="-0.939243">
        <ele>67.77215</ele>
        <time>2026-09-20T09:37:07.000Z</time>
      </trkpt>
      <trkpt lat="51.572847" lon="-0.939056">
        <ele>66.874761</ele>
        <time>2026-09-20T09:37:16.000Z</time>
      </trkpt>
      <trkpt lat="51.571526" lon="-0.938604">
        <ele>65.335628</ele>
        <time>2026-09-20T09:37:31.000Z</time>
      </trkpt>
      <trkpt lat="51.570944" lon="-0.938431">
        <ele>64.592611</ele>
        <time>2026-09-20T09:37:38.000Z</time>
      </trkpt>
      <trkpt lat="51.5706" lon="-0.938381">
        <ele>64.157098</ele>
        <time>2026-09-20T09:37:42.000Z</time>
      </trkpt>
      <trkpt lat="51.570131" lon="-0.938157">
        <ele>63.583056</ele>
        <time>2026-09-20T09:37:47.000Z</time>
      </trkpt>
      <trkpt lat="51.570128" lon="-0.938149">
        <ele>63.57835</ele>
        <time>2026-09-20T09:37:47.000Z</time>
      </trkpt>
      <trkpt lat="51.569434" lon="-0.937664">
        <ele>62.721777</ele>
        <time>2026-09-20T09:37:55.000Z</time>
      </trkpt>
      <trkpt lat="51.568044" lon="-0.936913">
        <ele>61.299217</ele>
        <time>2026-09-20T09:38:11.000Z</time>
      </trkpt>
      <trkpt lat="51.56773" lon="-0.936727">
        <ele>61.040629</ele>
        <time>2026-09-20T09:38:15.000Z</time>
      </trkpt>
      <trkpt lat="51.567235" lon="-0.936308">
        <ele>60.622408</ele>
        <time>2026-09-20T09:38:21.000Z</time>
      </trkpt>
      <trkpt lat="51.56664" lon="-0.935671">
        <ele>60.046279</ele>
        <time>2026-09-20T09:38:29.000Z</time>
      </trkpt>
      <trkpt lat="51.566171" lon="-0.935343">
        <ele>59.614294</ele>
        <time>2026-09-20T09:38:35.000Z</time>
      </trkpt>
      <trkpt lat="51.565971" lon="-0.935275">
        <ele>59.445945</ele>
        <time>2026-09-20T09:38:37.000Z</time>
      </trkpt>
      <trkpt lat="51.565872" lon="-0.935252">
        <ele>59.36682</ele>
        <time>2026-09-20T09:38:38.000Z</time>
      </trkpt>
      <trkpt lat="51.56567" lon="-0.935234">
        <ele>59.203809</ele>
        <time>2026-09-20T09:38:40.000Z</time>
      </trkpt>
      <trkpt lat="51.565649" lon="-0.935229">
        <ele>59.182904</ele>
        <time>2026-09-20T09:38:40.000Z</time>
      </trkpt>
      <trkpt lat="51.56524" lon="-0.935186">
        <ele>58.830602</ele>
        <time>2026-09-20T09:38:45.000Z</time>
      </trkpt>
      <trkpt lat="51.564786" lon="-0.935119">
        <ele>58.445687</ele>
        <time>2026-09-20T09:38:50.000Z</time>
      </trkpt>
      <trkpt lat="51.56452" lon="-0.935027">
        <ele>58.224506</ele>
        <time>2026-09-20T09:38:53.000Z</time>
      </trkpt>
      <trkpt lat="51.564075" lon="-0.934706">
        <ele>57.804966</ele>
        <time>2026-09-20T09:38:58.000Z</time>
      </trkpt>
      <trkpt lat="51.563189" lon="-0.93408">
        <ele>57.526205</ele>
        <time>2026-09-20T09:39:09.000Z</time>
      </trkpt>
      <trkpt lat="51.562486" lon="-0.93354">
        <ele>57.780989</ele>
        <time>2026-09-20T09:39:18.000Z</time>
      </trkpt>
      <trkpt lat="51.562269" lon="-0.93337">
        <ele>57.857996</ele>
        <time>2026-09-20T09:39:21.000Z</time>
      </trkpt>
      <trkpt lat="51.561808" lon="-0.932959">
        <ele>57.843258</ele>
        <time>2026-09-20T09:39:27.000Z</time>
      </trkpt>
      <trkpt lat="51.560936" lon="-0.932201">
        <ele>57.275014</ele>
        <time>2026-09-20T09:39:38.000Z</time>
      </trkpt>
      <trkpt lat="51.558969" lon="-0.929913">
        <ele>53.150777</ele>
        <time>2026-09-20T09:40:05.000Z</time>
      </trkpt>
      <trkpt lat="51.558817" lon="-0.929747">
        <ele>52.955522</ele>
        <time>2026-09-20T09:40:07.000Z</time>
      </trkpt>
      <trkpt lat="51.558448" lon="-0.929344">
        <ele>52.520135</ele>
        <time>2026-09-20T09:40:12.000Z</time>
      </trkpt>
      <trkpt lat="51.558285" lon="-0.929191">
        <ele>52.332041</ele>
        <time>2026-09-20T09:40:14.000Z</time>
      </trkpt>
      <trkpt lat="51.556987" lon="-0.928261">
        <ele>51.155773</ele>
        <time>2026-09-20T09:40:30.000Z</time>
      </trkpt>
      <trkpt lat="51.556519" lon="-0.92787">
        <ele>50.896055</ele>
        <time>2026-09-20T09:40:36.000Z</time>
      </trkpt>
      <trkpt lat="51.556424" lon="-0.927797">
        <ele>50.849009</ele>
        <time>2026-09-20T09:40:37.000Z</time>
      </trkpt>
      <trkpt lat="51.556389" lon="-0.92775">
        <ele>50.821514</ele>
        <time>2026-09-20T09:40:38.000Z</time>
      </trkpt>
      <trkpt lat="51.556007" lon="-0.927429">
        <ele>50.61165</ele>
        <time>2026-09-20T09:40:43.000Z</time>
      </trkpt>
      <trkpt lat="51.555386" lon="-0.926983">
        <ele>50.492276</ele>
        <time>2026-09-20T09:40:51.000Z</time>
      </trkpt>
      <trkpt lat="51.554692" lon="-0.926266">
        <ele>50.478124</ele>
        <time>2026-09-20T09:41:00.000Z</time>
      </trkpt>
      <trkpt lat="51.554357" lon="-0.925944">
        <ele>50.471509</ele>
        <time>2026-09-20T09:41:04.000Z</time>
      </trkpt>
      <trkpt lat="51.554384" lon="-0.92588">
        <ele>50.470764</ele>
        <time>2026-09-20T09:41:05.000Z</time>
      </trkpt>
      <trkpt lat="51.55191" lon="-0.922343">
        <ele>48.485746</ele>
        <time>2026-09-20T09:41:42.000Z</time>
      </trkpt>
      <trkpt lat="51.551919" lon="-0.922337">
        <ele>48.485736</ele>
        <time>2026-09-20T09:41:42.000Z</time>
      </trkpt>
      <trkpt lat="51.551672" lon="-0.921944">
        <ele>48.202641</ele>
        <time>2026-09-20T09:41:46.000Z</time>
      </trkpt>
      <trkpt lat="51.550771" lon="-0.920623">
        <ele>46.690897</ele>
        <time>2026-09-20T09:42:00.000Z</time>
      </trkpt>
      <trkpt lat="51.547513" lon="-0.915905">
        <ele>42.300286</ele>
        <time>2026-09-20T09:42:49.000Z</time>
      </trkpt>
      <trkpt lat="51.546451" lon="-0.914369">
        <ele>40.891511</ele>
        <time>2026-09-20T09:43:05.000Z</time>
      </trkpt>
      <trkpt lat="51.545119" lon="-0.912443">
        <ele>38.755325</ele>
        <time>2026-09-20T09:43:25.000Z</time>
      </trkpt>
      <trkpt lat="51.544709" lon="-0.911688">
        <ele>38.141756</ele>
        <time>2026-09-20T09:43:32.000Z</time>
      </trkpt>
      <trkpt lat="51.5445" lon="-0.91128">
        <ele>37.847462</ele>
        <time>2026-09-20T09:43:36.000Z</time>
      </trkpt>
      <trkpt lat="51.54449" lon="-0.91127">
        <ele>37.845071</ele>
        <time>2026-09-20T09:43:36.000Z</time>
      </trkpt>
      <trkpt lat="51.544299" lon="-0.910773">
        <ele>37.526398</ele>
        <time>2026-09-20T09:43:40.000Z</time>
      </trkpt>
      <trkpt lat="51.543897" lon="-0.909719">
        <ele>36.855413</ele>
        <time>2026-09-20T09:43:49.000Z</time>
      </trkpt>
      <trkpt lat="51.543488" lon="-0.908739">
        <ele>36.27423</ele>
        <time>2026-09-20T09:43:57.000Z</time>
      </trkpt>
      <trkpt lat="51.54321" lon="-0.908175">
        <ele>35.922877</ele>
        <time>2026-09-20T09:44:02.000Z</time>
      </trkpt>
      <trkpt lat="51.543131" lon="-0.908135">
        <ele>35.854954</ele>
        <time>2026-09-20T09:44:03.000Z</time>
      </trkpt>
      <trkpt lat="51.542559" lon="-0.907091">
        <ele>35.253912</ele>
        <time>2026-09-20T09:44:13.000Z</time>
      </trkpt>
      <trkpt lat="51.542379" lon="-0.906814">
        <ele>35.110851</ele>
        <time>2026-09-20T09:44:16.000Z</time>
      </trkpt>
      <trkpt lat="51.542005" lon="-0.906152">
        <ele>34.789138</ele>
        <time>2026-09-20T09:44:22.000Z</time>
      </trkpt>
      <trkpt lat="51.541941" lon="-0.906065">
        <ele>34.739793</ele>
        <time>2026-09-20T09:44:23.000Z</time>
      </trkpt>
      <trkpt lat="51.541672" lon="-0.905643">
        <ele>34.522188</ele>
        <time>2026-09-20T09:44:27.000Z</time>
      </trkpt>
      <trkpt lat="51.541398" lon="-0.905231">
        <ele>34.517482</ele>
        <time>2026-09-20T09:44:31.000Z</time>
      </trkpt>
      <trkpt lat="51.541366" lon="-0.905029">
        <ele>34.545088</ele>
        <time>2026-09-20T09:44:32.000Z</time>
      </trkpt>
      <trkpt lat="51.541458" lon="-0.90501">
        <ele>34.566748</ele>
        <time>2026-09-20T09:44:33.000Z</time>
      </trkpt>
      <trkpt lat="51.541672" lon="-0.904931">
        <ele>34.617974</ele>
        <time>2026-09-20T09:44:35.000Z</time>
      </trkpt>
      <trkpt lat="51.542032" lon="-0.904824">
        <ele>34.700378</ele>
        <time>2026-09-20T09:44:39.000Z</time>
      </trkpt>
      <trkpt lat="51.542373" lon="-0.904722">
        <ele>34.779856</ele>
        <time>2026-09-20T09:44:43.000Z</time>
      </trkpt>
      <trkpt lat="51.542552" lon="-0.904682">
        <ele>34.819324</ele>
        <time>2026-09-20T09:44:45.000Z</time>
      </trkpt>
      <trkpt lat="51.54312" lon="-0.904571">
        <ele>34.827009</ele>
        <time>2026-09-20T09:44:51.000Z</time>
      </trkpt>
      <trkpt lat="51.543276" lon="-0.904513">
        <ele>34.807487</ele>
        <time>2026-09-20T09:44:53.000Z</time>
      </trkpt>
      <trkpt lat="51.543963" lon="-0.904139">
        <ele>34.720069</ele>
        <time>2026-09-20T09:45:01.000Z</time>
      </trkpt>
      <trkpt lat="51.545461" lon="-0.903646">
        <ele>34.079696</ele>
        <time>2026-09-20T09:45:18.000Z</time>
      </trkpt>
      <trkpt lat="51.545482" lon="-0.903623">
        <ele>34.059039</ele>
        <time>2026-09-20T09:45:18.000Z</time>
      </trkpt>
      <trkpt lat="51.545872" lon="-0.903428">
        <ele>33.814161</ele>
        <time>2026-09-20T09:45:23.000Z</time>
      </trkpt>
      <trkpt lat="51.547541" lon="-0.902671">
        <ele>33.644601</ele>
        <time>2026-09-20T09:45:42.000Z</time>
      </trkpt>
      <trkpt lat="51.548701" lon="-0.902202">
        <ele>34.011709</ele>
        <time>2026-09-20T09:45:55.000Z</time>
      </trkpt>
      <trkpt lat="51.54881" lon="-0.902213">
        <ele>34.066171</ele>
        <time>2026-09-20T09:45:56.000Z</time>
      </trkpt>
      <trkpt lat="51.550049" lon="-0.902389">
        <ele>34.428178</ele>
        <time>2026-09-20T09:46:10.000Z</time>
      </trkpt>
      <trkpt lat="51.550696" lon="-0.902579">
        <ele>34.25251</ele>
        <time>2026-09-20T09:46:17.000Z</time>
      </trkpt>
      <trkpt lat="51.551182" lon="-0.902657">
        <ele>34.123904</ele>
        <time>2026-09-20T09:46:22.000Z</time>
      </trkpt>
      <trkpt lat="51.552539" lon="-0.902878">
        <ele>33.48625</ele>
        <time>2026-09-20T09:46:37.000Z</time>
      </trkpt>
      <trkpt lat="51.552972" lon="-0.902884">
        <ele>33.25732</ele>
        <time>2026-09-20T09:46:42.000Z</time>
      </trkpt>
      <trkpt lat="51.553336" lon="-0.902808">
        <ele>33.062012</ele>
        <time>2026-09-20T09:46:46.000Z</time>
      </trkpt>
      <trkpt lat="51.55408" lon="-0.902553">
        <ele>33.598893</ele>
        <time>2026-09-20T09:46:54.000Z</time>
      </trkpt>
      <trkpt lat="51.55623" lon="-0.901772">
        <ele>35.256761</ele>
        <time>2026-09-20T09:47:19.000Z</time>
      </trkpt>
      <trkpt lat="51.556278" lon="-0.901751">
        <ele>35.296439</ele>
        <time>2026-09-20T09:47:20.000Z</time>
      </trkpt>
      <trkpt lat="51.557183" lon="-0.901296">
        <ele>35.689482</ele>
        <time>2026-09-20T09:47:31.000Z</time>
      </trkpt>
      <trkpt lat="51.557608" lon="-0.901068">
        <ele>35.606649</ele>
        <time>2026-09-20T09:47:36.000Z</time>
      </trkpt>
      <trkpt lat="51.558291" lon="-0.900631">
        <ele>35.467978</ele>
        <time>2026-09-20T09:47:44.000Z</time>
      </trkpt>
      <trkpt lat="51.558685" lon="-0.900313">
        <ele>35.24296</ele>
        <time>2026-09-20T09:47:49.000Z</time>
      </trkpt>
      <trkpt lat="51.55885" lon="-0.900126">
        <ele>35.052963</ele>
        <time>2026-09-20T09:47:51.000Z</time>
      </trkpt>
      <trkpt lat="51.559116" lon="-0.899673">
        <ele>34.699652</ele>
        <time>2026-09-20T09:47:55.000Z</time>
      </trkpt>
      <trkpt lat="51.559237" lon="-0.899358">
        <ele>34.497612</ele>
        <time>2026-09-20T09:47:58.000Z</time>
      </trkpt>
      <trkpt lat="51.559373" lon="-0.899109">
        <ele>34.302377</ele>
        <time>2026-09-20T09:48:00.000Z</time>
      </trkpt>
      <trkpt lat="51.559532" lon="-0.898925">
        <ele>34.127608</ele>
        <time>2026-09-20T09:48:02.000Z</time>
      </trkpt>
      <trkpt lat="51.559635" lon="-0.898841">
        <ele>34.02448</ele>
        <time>2026-09-20T09:48:03.000Z</time>
      </trkpt>
      <trkpt lat="51.560134" lon="-0.898597">
        <ele>33.673482</ele>
        <time>2026-09-20T09:48:09.000Z</time>
      </trkpt>
      <trkpt lat="51.560457" lon="-0.898339">
        <ele>33.520966</ele>
        <time>2026-09-20T09:48:13.000Z</time>
      </trkpt>
      <trkpt lat="51.560709" lon="-0.898098">
        <ele>33.397958</ele>
        <time>2026-09-20T09:48:16.000Z</time>
      </trkpt>
      <trkpt lat="51.560962" lon="-0.897788">
        <ele>33.262322</ele>
        <time>2026-09-20T09:48:20.000Z</time>
      </trkpt>
      <trkpt lat="51.56104" lon="-0.897604">
        <ele>33.20151</ele>
        <time>2026-09-20T09:48:22.000Z</time>
      </trkpt>
      <trkpt lat="51.561506" lon="-0.896467">
        <ele>33.271044</ele>
        <time>2026-09-20T09:48:31.000Z</time>
      </trkpt>
      <trkpt lat="51.561573" lon="-0.896225">
        <ele>33.368685</ele>
        <time>2026-09-20T09:48:33.000Z</time>
      </trkpt>
      <trkpt lat="51.561986" lon="-0.894208">
        <ele>34.134625</ele>
        <time>2026-09-20T09:48:48.000Z</time>
      </trkpt>
      <trkpt lat="51.562345" lon="-0.892616">
        <ele>34.346503</ele>
        <time>2026-09-20T09:49:00.000Z</time>
      </trkpt>
      <trkpt lat="51.56236" lon="-0.89241">
        <ele>34.37137</ele>
        <time>2026-09-20T09:49:01.000Z</time>
      </trkpt>
      <trkpt lat="51.562388" lon="-0.892091">
        <ele>34.411712</ele>
        <time>2026-09-20T09:49:03.000Z</time>
      </trkpt>
      <trkpt lat="51.562321" lon="-0.891485">
        <ele>34.448842</ele>
        <time>2026-09-20T09:49:07.000Z</time>
      </trkpt>
      <trkpt lat="51.56233" lon="-0.89126">
        <ele>34.373854</ele>
        <time>2026-09-20T09:49:09.000Z</time>
      </trkpt>
      <trkpt lat="51.562336" lon="-0.890962">
        <ele>34.282167</ele>
        <time>2026-09-20T09:49:11.000Z</time>
      </trkpt>
      <trkpt lat="51.56248" lon="-0.890301">
        <ele>34.060905</ele>
        <time>2026-09-20T09:49:16.000Z</time>
      </trkpt>
      <trkpt lat="51.562725" lon="-0.889483">
        <ele>33.771978</ele>
        <time>2026-09-20T09:49:22.000Z</time>
      </trkpt>
      <trkpt lat="51.562941" lon="-0.888882">
        <ele>33.556295895</ele>
        <time>2026-09-20T09:49:27.000Z</time>
      </trkpt>
      <trkpt lat="51.563143" lon="-0.887916">
        <ele>33.2396495075</ele>
        <time>2026-09-20T09:49:34.000Z</time>
      </trkpt>
      <trkpt lat="51.563253" lon="-0.88728">
        <ele>33.0345492896</ele>
        <time>2026-09-20T09:49:39.000Z</time>
      </trkpt>
    </trkseg>
  </trk>
</gpx>

<!--
Performance optimized by W3 Total Cache. Learn more: https://www.boldgrid.com/w3-total-cache/?utm_source=w3tc&utm_medium=footer_comment&utm_campaign=free_plugin

Page Caching using Disk: Enhanced{w3tc_pagecache_reject_reason} 

Served from: www.aquabike.world @ 2026-05-10 20:19:55 by W3 Total Cache
-->